• Join FlightAware (Why Join?)
  • Login
  • US Flag 
02:58PM EST


 

Airport Tracker/Info


-or-


 

Live Flight TrackerFlight Track Log ✈ DAL268 ✈ 27-Jun-2013 ✈ KJFK - LLBG / TLV

Flight Track Log - Related Links

Times and Time Zones

All times are in EDT time to prevent confusion due to time zone crossing. See the DAL268 flight status page for this flight to view local times or setup timezone preferences in your user account.

Time Position Orientation Groundspeed Altitude Reporting Facility
EDT Latitude Longitude Course Direction KTS MPH feet Rate Location/Type
06:14AM 40.6440 -73.7820 240° Southwest 2 2  Level FlightAware
06:16AM 40.5998 -73.4492 108° East  Level FlightAware Approximate
06:17AM 40.5833 -73.2695 90° East  Level FlightAware Approximate
06:18AM 40.5540 -73.0941 97° East  Level FlightAware Approximate
06:19AM 40.5667 -72.9180 90° East  Level FlightAware Approximate
06:20AM 40.6174 -72.7478 66° East  Level FlightAware Approximate
06:21AM 40.6563 -72.5749 72° East  Level FlightAware Approximate
06:23AM 40.6000 -73.4583 90° East  Level FlightAware Approximate
06:23AM 40.6420 -73.7800 90° East 18 21  Level FlightAware
06:23AM 40.6420 -73.7790 90° East 22 25 120 Level FlightAware
06:24AM 40.6420 -73.7780 90° East 13 15 120 Level FlightAware
06:24AM 40.6430 -73.7770 37° Northeast 20 23 120 Level FlightAware
06:25AM 40.6440 -73.7770 360° North 26 30 120 Level FlightAware
06:25AM 40.6450 -73.7750 57° Northeast 31 36 120 Level FlightAware
06:26AM 40.6460 -73.7740 37° Northeast 34 39 120 Level FlightAware
06:28AM 40.5976 -73.4405 108° East  Level FlightAware Approximate
06:28AM 40.6540 -73.7690 123° Southeast 18 21  Level FlightAware
06:29AM 40.5807 -73.2614 123° Southeast  Level FlightAware Approximate
06:31AM 40.5853 -73.3912 108° East  Level FlightAware Approximate
06:32AM 40.5650 -73.2152 97° East  Level FlightAware Approximate
06:33AM 40.5500 -73.0334 90° East  Level FlightAware Approximate
06:33AM 40.6540 -73.7660 90° East 26 30  Level FlightAware
06:33AM 40.6530 -73.7660 180° South 30 35 900 Level FlightAware
06:34AM 40.6360 -73.7790 210° Southwest 160 184 960 Level FlightAware
06:35AM 40.6060 -73.8010 209° Southwest 172 198 1,700 1,560 Climbing FlightAware
06:35AM 40.5833 -73.8167 72° East 187 215 1,800 960 Climbing New York TRACON
06:36AM 40.5167 -73.8167 180° South 270 311 3,200 720 Climbing New York TRACON
06:37AM 40.7602 -73.5180 108° East  Level Estimated
06:38AM 40.8433 -73.3645 123° Southeast  Level Estimated
06:38AM 40.6282 -73.6126 90° East  Level Estimated
06:39AM 40.9261 -73.2106 97° East  Level Estimated
06:40AM 41.0088 -73.0564 72° East  Level Estimated
06:45AM 41.2152 -72.5163 72° East  Level Estimated
06:46AM 41.2981 -72.3581 72° East  Level Estimated
06:47AM 41.3809 -72.1995 66° East  Level Estimated
06:48AM 41.4635 -72.0405 69° East  Level Estimated
06:49AM 41.5458 -71.8811 72° East  Level Estimated
06:50AM 41.5188 -71.6907 101° East  Level FlightAware Approximate
06:51AM 41.4915 -71.5005 101° East  Level FlightAware Approximate
06:52AM 41.4638 -71.3105 101° East  Level FlightAware Approximate
06:53AM 41.4359 -71.1206 101° East  Level FlightAware Approximate
06:54AM 41.4076 -70.9309 101° East  Level FlightAware Approximate
06:55AM 41.3790 -70.7414 101° East  Level FlightAware Approximate
06:56AM 41.4597 -70.5809 56° Northeast  Level Estimated
06:57AM 41.5402 -70.4200 56° Northeast  Level Estimated
06:58AM 41.6204 -70.2587 56° Northeast  Level Estimated
06:59AM 41.7005 -70.0971 56° Northeast  Level Estimated
07:00AM 41.7802 -69.9350 57° Northeast  Level Estimated
07:01AM 41.8598 -69.7725 57° Northeast  Level Estimated
07:02AM 41.9391 -69.6096 57° Northeast  Level Estimated
07:03AM 42.0182 -69.4463 57° Northeast  Level Estimated
07:04AM 42.0971 -69.2826 57° Northeast  Level Estimated
07:05AM 42.1757 -69.1184 57° Northeast  Level Estimated
07:06AM 42.2541 -68.9539 57° Northeast  Level Estimated
07:07AM 42.3323 -68.7890 57° Northeast  Level Estimated
07:08AM 42.4102 -68.6237 57° Northeast  Level Estimated
07:09AM 42.4879 -68.4579 58° Northeast  Level Estimated
07:10AM 42.5654 -68.2917 58° Northeast  Level Estimated
07:11AM 42.6426 -68.1252 58° Northeast  Level Estimated
07:12AM 42.7195 -67.9582 58° Northeast  Level Estimated
07:13AM 42.7963 -67.7908 58° Northeast  Level Estimated
07:14AM 42.8727 -67.6230 58° Northeast  Level Estimated
07:15AM 42.9490 -67.4547 58° Northeast  Level Estimated
07:16AM 43.0250 -67.2859 58° Northeast  Level Estimated
07:17AM 43.1009 -67.1166 58° Northeast  Level Estimated
07:18AM 43.1764 -66.9470 59° Northeast  Level Estimated
07:18AM 43.5550 -67.5600 49° Northeast 533 613 32,900  Level Boston Center
07:19AM 43.2518 -66.7768 59° Northeast  Level Estimated
07:20AM 43.3268 -66.6063 59° Northeast  Level Estimated
07:20AM 43.6410 -67.4150 59° Northeast 529 609 33,000  Level FlightAware
07:23AM 43.8589 -67.0918 49° Northeast  Level FlightAware Approximate
07:24AM 44.0930 -66.6830 49° Northeast 547 629 33,000  Level FlightAware
07:24AM 44.1550 -66.5790 50° Northeast 547 629 33,000  Level FlightAware
07:25AM 44.2050 -66.4960 50° Northeast 547 629 33,000  Level FlightAware
07:29AM 44.5990 -65.8140 51° Northeast 546 628 33,000  Level FlightAware
07:29AM 44.6480 -65.7270 52° Northeast 545 627 33,000 -120 Level FlightAware
07:30AM 44.7170 -65.6060 51° Northeast 543 625 32,900  Descending FlightAware
07:31AM 44.7870 -65.4830 51° Northeast 541 623 33,000 60 Climbing FlightAware
07:31AM 44.8510 -65.3700 51° Northeast 539 620 33,000  Level FlightAware
07:32AM 44.9120 -65.2610 52° Northeast 539 620 33,000 -120 Level FlightAware
07:33AM 44.9840 -65.1330 51° Northeast 542 624 32,900 -120 Descending FlightAware
07:34AM 45.0480 -65.0170 52° Northeast 545 627 32,900 60 Level FlightAware
07:34AM 45.1170 -64.8930 52° Northeast 546 628 33,000 60 Climbing FlightAware
07:35AM 45.1680 -64.8020 51° Northeast 546 628 33,000  Level FlightAware
07:36AM 45.2620 -64.6300 52° Northeast 546 628 33,000  Level FlightAware
07:37AM 45.3940 -64.3870 52° Northeast 548 631 33,000  Level FlightAware
07:38AM 45.4700 -64.2490 52° Northeast 548 631 33,000  Level FlightAware
07:39AM 45.5330 -64.1320 52° Northeast 548 631 33,000  Level FlightAware
07:41AM 45.6550 -63.9090 52° Northeast 548 631 33,000  Level FlightAware
07:41AM 45.6870 -63.8510 52° Northeast 548 631 33,000  Level FlightAware
07:42AM 45.7480 -63.7390 52° Northeast 548 631 33,000  Level FlightAware
07:43AM 45.8130 -63.6190 52° Northeast 548 631 33,000  Level FlightAware
07:43AM 45.8620 -63.5290 52° Northeast 548 631 33,000  Level FlightAware
07:46AM 46.0653 -63.1321 53° Northeast  Level FlightAware Approximate
07:46AM 46.1830 -62.8940 53° Northeast 549 632 33,000  Level FlightAware
07:47AM 46.2430 -62.7770 53° Northeast 550 633 33,000  Level FlightAware
07:47AM 46.3150 -62.6360 53° Northeast 551 634 33,000  Level FlightAware
07:48AM 46.3720 -62.5230 54° Northeast 551 634 33,000 -120 Level FlightAware
07:49AM 46.4410 -62.3870 54° Northeast 552 635 32,900  Descending FlightAware
07:49AM 46.4980 -62.2730 54° Northeast 552 635 33,000  Climbing FlightAware
07:51AM 46.6010 -62.0690 54° Northeast 554 638 33,000  Level FlightAware
07:51AM 46.6750 -61.9210 54° Northeast 553 636 33,000  Level FlightAware
07:52AM 46.7330 -61.8030 54° Northeast 553 636 33,000  Level FlightAware
07:53AM 46.7930 -61.6810 54° Northeast 553 636 33,000  Level FlightAware
07:53AM 46.8620 -61.5410 54° Northeast 554 638 33,000  Level FlightAware
07:54AM 46.9160 -61.4310 54° Northeast 554 638 33,000  Level FlightAware
07:55AM 46.9750 -61.3100 54° Northeast 554 638 33,000 -120 Level FlightAware
07:55AM 47.0000 -61.2000 54° Northeast 550 633 32,900 -120 Descending Moncton Center
07:56AM 47.1000 -61.0000 54° Northeast 550 633 32,900  Level Moncton Center
07:59AM 47.1917 -60.8329 54° Northeast  Level FlightAware Approximate
08:01AM 47.4667 -60.2167 58° Northeast 560 644 32,900  Level Gander Center
08:01AM 47.5167 -60.0500 66° East 570 656 32,900  Level Moncton Center
08:02AM 47.6167 -59.8833 48° Northeast 560 644 32,900  Level Moncton Center
08:03AM 47.6833 -59.6667 65° Northeast 570 656 32,900  Level Moncton Center
08:04AM 47.7500 -59.5167 56° Northeast 570 656 32,900  Level Gander Center
08:05AM 47.8333 -59.3333 56° Northeast 570 656 32,900  Level Gander Center
08:06AM 47.7404 -59.5676 58° Northeast  Level FlightAware Approximate
08:06AM 47.9333 -59.1167 55° Northeast 570 656 32,900  Level Gander Center
08:07AM 48.0333 -58.8667 59° Northeast 570 656 32,900  Level Moncton Center
08:09AM 48.1667 -58.5333 59° Northeast 580 667 32,900  Level Gander Center
08:11AM 48.2424 -58.3466 59° Northeast  Level FlightAware Approximate
08:15AM 48.6833 -57.1833 60° Northeast 570 656 33,000  Level Moncton Center
08:16AM 48.7333 -57.0500 60° Northeast 570 656 32,900 -60 Descending Gander Center
08:17AM 48.8167 -56.8333 60° Northeast 580 667 32,900  Level Gander Center
08:18AM 48.7639 -57.0241 59° Northeast  Level FlightAware Approximate
08:19AM 48.8372 -56.8330 60° Northeast  Level FlightAware Approximate
08:19AM 48.9167 -56.5167 64° Northeast 580 667 32,900  Level Gander Center
08:20AM 48.9101 -56.6413 60° Northeast  Level FlightAware Approximate
08:20AM 49.0000 -56.2833 61° Northeast 580 667 32,900  Level Gander Center
08:20AM 49.0667 -56.1333 56° Northeast 580 667 32,900  Level Moncton Center
08:22AM 49.1500 -55.8833 63° Northeast 570 656 32,900  Level Gander Center
08:23AM 49.2333 -55.6500 61° Northeast 570 656 32,900  Level Gander Center
08:25AM 49.3667 -55.2167 65° Northeast 570 656 32,900 240 Level Gander Center
08:26AM 49.4667 -54.9000 64° Northeast 570 656 33,800 780 Climbing Gander Center
08:27AM 49.5500 -54.7000 57° Northeast 570 656 34,900 420 Climbing Gander Center
08:29AM 49.6667 -54.3500 63° Northeast 570 656 34,900  Level Gander Center
08:30AM 49.7405 -54.1556 59° Northeast  Level FlightAware Approximate
08:31AM 49.8000 -53.9167 59° Northeast 570 656 34,900  Level Gander Center
08:32AM 49.9167 -53.5333 65° Northeast 560 644 34,900  Level Moncton Center
08:34AM 50.0128 -53.2971 58° Northeast  Level FlightAware Approximate
08:41AM 50.5312 -51.9236 69° East  Level FlightAware Approximate
08:42AM 50.5827 -51.7128 69° East  Level FlightAware Approximate
08:43AM 50.6338 -51.5016 69° East  Level FlightAware Approximate
08:44AM 50.6854 -51.2863 69° East  Level FlightAware Approximate
08:45AM 50.7366 -51.0706 69° East  Level FlightAware Approximate
08:46AM 50.7875 -50.8544 70° East  Level FlightAware Approximate
08:47AM 50.8379 -50.6377 70° East  Level FlightAware Approximate
08:48AM 50.8879 -50.4205 70° East  Level FlightAware Approximate
08:49AM 50.9375 -50.2029 70° East  Level FlightAware Approximate
08:50AM 50.9939 -50.0000 North  Level FlightAware Approximate
08:51AM 51.0501 -49.7925 69° East  Level FlightAware Approximate
08:52AM 51.1020 -49.5755 69° East  Level FlightAware Approximate
08:52AM 51.1500 -49.2667 69° East 530 610 34,900  Level Gander Center
08:53AM 51.1535 -49.3581 69° East  Level FlightAware Approximate
08:54AM 51.2046 -49.1402 69° East  Level FlightAware Approximate
08:54AM 51.2165 -48.9263 73° East  Level Estimated
08:55AM 51.2553 -48.9217 70° East  Level FlightAware Approximate
08:56AM 51.3065 -48.7036 69° East  Level FlightAware Approximate
08:57AM 51.3586 -48.4856 69° East  Level FlightAware Approximate
09:01AM 51.5075 -47.3599 73° East  Level Estimated
09:02AM 51.5474 -47.1345 74° East  Level Estimated
09:03AM 51.5868 -46.9088 74° East  Level Estimated
09:04AM 51.6258 -46.6826 74° East  Level Estimated
09:05AM 51.6644 -46.4561 75° East  Level Estimated
09:06AM 51.7025 -46.2292 75° East  Level Estimated
09:07AM 51.7402 -46.0019 75° East  Level Estimated
09:08AM 51.7775 -45.7742 75° East  Level Estimated
09:09AM 51.8143 -45.5461 75° East  Level Estimated
09:10AM 51.8506 -45.3177 75° East  Level Estimated
09:11AM 51.8866 -45.0889 76° East  Level Estimated
09:12AM 51.9220 -44.8598 76° East  Level Estimated
09:13AM 51.9571 -44.6302 76° East  Level Estimated
09:14AM 51.9916 -44.4004 76° East  Level Estimated
09:15AM 52.0258 -44.1701 76° East  Level Estimated
09:16AM 52.0595 -43.9396 77° East  Level Estimated
09:17AM 52.0927 -43.7086 77° East  Level Estimated
09:18AM 52.1255 -43.4774 77° East  Level Estimated
09:19AM 52.1578 -43.2458 77° East  Level Estimated
09:20AM 52.1897 -43.0138 77° East  Level Estimated
09:21AM 52.2211 -42.7816 77° East  Level Estimated
09:22AM 52.2521 -42.5490 78° East  Level Estimated
09:23AM 52.2826 -42.3161 78° East  Level Estimated
09:24AM 52.3126 -42.0828 78° East  Level Estimated
09:25AM 52.3422 -41.8493 78° East  Level Estimated
09:26AM 52.3714 -41.6154 78° East  Level Estimated
09:27AM 52.4000 -41.3812 79° East  Level Estimated
09:28AM 52.4282 -41.1468 79° East  Level Estimated
09:29AM 52.4560 -40.9120 79° East  Level Estimated
09:30AM 52.4832 -40.6769 79° East  Level Estimated
09:31AM 52.5101 -40.4416 79° East  Level Estimated
09:32AM 52.5364 -40.2060 79° East  Level Estimated
09:33AM 52.5623 -39.9701 80° East  Level Estimated
09:34AM 52.5877 -39.7339 80° East  Level Estimated
09:35AM 52.6126 -39.4974 80° East  Level Estimated
09:36AM 52.6371 -39.2607 80° East  Level Estimated
09:37AM 52.6610 -39.0237 80° East  Level Estimated
09:38AM 52.6846 -38.7864 81° East  Level Estimated
09:39AM 52.7076 -38.5489 81° East  Level Estimated
09:40AM 52.7302 -38.3112 81° East  Level Estimated
09:41AM 52.7523 -38.0732 81° East  Level Estimated
09:42AM 52.7739 -37.8350 81° East  Level Estimated
09:43AM 52.7950 -37.5965 82° East  Level Estimated
09:44AM 52.8157 -37.3578 82° East  Level Estimated
09:45AM 52.8358 -37.1189 82° East  Level Estimated
09:46AM 52.8555 -36.8798 82° East  Level Estimated
09:47AM 52.8747 -36.6404 82° East  Level Estimated
09:48AM 52.8935 -36.4008 83° East  Level Estimated
09:49AM 52.9117 -36.1611 83° East  Level Estimated
09:50AM 52.9295 -35.9211 83° East  Level Estimated
09:51AM 52.9468 -35.6810 83° East  Level Estimated
09:52AM 52.9636 -35.4406 83° East  Level Estimated
09:53AM 52.9799 -35.2001 83° East  Level Estimated
09:54AM 52.9957 -34.9594 84° East  Level Estimated
09:55AM 53.0111 -34.7185 84° East  Level Estimated
09:56AM 53.0259 -34.4774 84° East  Level Estimated
09:57AM 53.0403 -34.2362 84° East  Level Estimated
09:58AM 53.0542 -33.9948 84° East  Level Estimated
09:59AM 53.0676 -33.7533 85° East  Level Estimated
10:00AM 53.0805 -33.5116 85° East  Level Estimated
10:01AM 53.0929 -33.2698 85° East  Level Estimated
10:02AM 53.1048 -33.0278 85° East  Level Estimated
10:03AM 53.1162 -32.7857 85° East  Level Estimated
10:04AM 53.1272 -32.5435 86° East  Level Estimated
10:05AM 53.1376 -32.3012 86° East  Level Estimated
10:06AM 53.1476 -32.0587 86° East  Level Estimated
10:07AM 53.1571 -31.8162 86° East  Level Estimated
10:08AM 53.1660 -31.5735 86° East  Level Estimated
10:09AM 53.1745 -31.3308 87° East  Level Estimated
10:10AM 53.1825 -31.0879 87° East  Level Estimated
10:11AM 53.1900 -30.8450 87° East  Level Estimated
10:12AM 53.1970 -30.6019 87° East  Level Estimated
10:13AM 53.2035 -30.3589 87° East  Level Estimated
10:14AM 53.2095 -30.1157 88° East  Level Estimated
10:15AM 53.2150 -29.8724 88° East  Level Estimated
10:16AM 53.2200 -29.6291 88° East  Level Estimated
10:17AM 53.2245 -29.3858 88° East  Level Estimated
10:18AM 53.2285 -29.1424 88° East  Level Estimated
10:19AM 53.2320 -28.9028 89° East  Level Estimated
10:20AM 53.2350 -28.6632 89° East  Level Estimated
10:21AM 53.2375 -28.4235 89° East  Level Estimated
10:22AM 53.2396 -28.1838 89° East  Level Estimated
10:23AM 53.2411 -27.9441 89° East  Level Estimated
10:24AM 53.2422 -27.7043 89° East  Level Estimated
10:25AM 53.2428 -27.4646 90° East  Level Estimated
10:26AM 53.2429 -27.2249 90° East  Level Estimated
10:27AM 53.2425 -26.9851 90° East  Level Estimated
10:28AM 53.2417 -26.7454 90° East  Level Estimated
10:29AM 53.2403 -26.5057 90° East  Level Estimated
10:30AM 53.2385 -26.2660 91° East  Level Estimated
10:31AM 53.2363 -26.0263 91° East  Level Estimated
10:32AM 53.2335 -25.7866 91° East  Level Estimated
10:33AM 53.2302 -25.5470 91° East  Level Estimated
10:34AM 53.2265 -25.3074 91° East  Level Estimated
10:35AM 53.2223 -25.0679 92° East  Level Estimated
10:36AM 53.2176 -24.8284 92° East  Level Estimated
10:37AM 53.2124 -24.5890 92° East  Level Estimated
10:38AM 53.2067 -24.3496 92° East  Level Estimated
10:39AM 53.2006 -24.1103 92° East  Level Estimated
10:40AM 53.1940 -23.8711 93° East  Level Estimated
10:41AM 53.1869 -23.6320 93° East  Level Estimated
10:42AM 53.1793 -23.3929 93° East  Level Estimated
10:43AM 53.1713 -23.1539 93° East  Level Estimated
10:44AM 53.1628 -22.9150 93° East  Level Estimated
10:45AM 53.1537 -22.6762 94° East  Level Estimated
10:46AM 53.1443 -22.4375 94° East  Level Estimated
10:47AM 53.1343 -22.1989 94° East  Level Estimated
10:48AM 53.1239 -21.9605 94° East  Level Estimated
10:49AM 53.1129 -21.7221 94° East  Level Estimated
10:50AM 53.1016 -21.4839 94° East  Level Estimated
10:51AM 53.0897 -21.2458 95° East  Level Estimated
10:52AM 53.0774 -21.0078 95° East  Level Estimated
10:53AM 53.0645 -20.7700 95° East  Level Estimated
10:54AM 53.0513 -20.5323 95° East  Level Estimated
10:55AM 53.0375 -20.2948 95° East  Level Estimated
10:56AM 53.0233 -20.0574 96° East  Level Estimated
10:57AM 53.0086 -19.8202 96° East  Level Estimated
10:58AM 52.9934 -19.5831 96° East  Level Estimated
10:59AM 52.9777 -19.3462 96° East  Level Estimated
11:00AM 52.9616 -19.1095 96° East  Level Estimated
11:01AM 52.9450 -18.8730 97° East  Level Estimated
11:02AM 52.9280 -18.6366 97° East  Level Estimated
11:03AM 52.9104 -18.4005 97° East  Level Estimated
11:04AM 52.8924 -18.1645 97° East  Level Estimated
11:05AM 52.8740 -17.9287 97° East  Level Estimated
11:06AM 52.8550 -17.6931 97° East  Level Estimated
11:07AM 52.8357 -17.4578 98° East  Level Estimated
11:08AM 52.8158 -17.2226 98° East  Level Estimated
11:09AM 52.7955 -16.9877 98° East  Level Estimated
11:10AM 52.7747 -16.7530 98° East  Level Estimated
11:11AM 52.7534 -16.5185 98° East  Level Estimated
11:12AM 52.7317 -16.2843 99° East  Level Estimated
11:13AM 52.7095 -16.0503 99° East  Level Estimated
11:14AM 52.6869 -15.8165 99° East  Level Estimated
11:15AM 52.6638 -15.5830 99° East  Level Estimated
11:16AM 52.6403 -15.3497 99° East  Level Estimated
11:17AM 52.6163 -15.1166 100° East  Level Estimated
11:18AM 52.5918 -14.8839 100° East  Level Estimated
11:19AM 52.5669 -14.6514 100° East  Level Estimated
11:20AM 52.5415 -14.4191 100° East  Level Estimated
11:21AM 52.5157 -14.1872 100° East  Level Estimated
11:22AM 52.4894 -13.9555 100° East  Level Estimated
11:23AM 52.4627 -13.7240 101° East  Level Estimated
11:24AM 52.4355 -13.4929 101° East  Level Estimated
11:25AM 52.4078 -13.2621 101° East  Level Estimated
11:26AM 52.3797 -13.0315 101° East  Level Estimated
11:27AM 52.3512 -12.8013 101° East  Level Estimated
11:28AM 52.3222 -12.5713 102° East  Level Estimated
11:29AM 52.2928 -12.3417 102° East  Level Estimated
11:30AM 52.2629 -12.1123 102° East  Level Estimated
11:31AM 52.2326 -11.8833 102° East  Level Estimated
11:32AM 52.2019 -11.6545 102° East  Level Estimated
11:33AM 52.1707 -11.4261 102° East  Level Estimated
11:34AM 52.1390 -11.1981 103° East  Level Estimated
11:35AM 52.1069 -10.9703 103° East  Level Estimated
11:36AM 52.0744 -10.7429 103° East  Level Estimated
11:37AM 52.0415 -10.5158 103° East  Level Estimated
11:38AM 52.0081 -10.2890 103° East  Level Estimated
11:39AM 51.9743 -10.0626 104° East  Level Estimated
11:40AM 51.9400 -9.8365 104° East  Level Estimated
11:41AM 51.9053 -9.6108 104° East  Level Estimated
11:42AM 51.8702 -9.3855 104° East  Level Estimated
11:43AM 51.8346 -9.1604 104° East  Level Estimated
11:44AM 51.7987 -8.9358 104° East  Level Estimated
11:45AM 51.7623 -8.7115 105° East  Level Estimated
11:46AM 51.7254 -8.4875 105° East  Level Estimated
11:47AM 51.6882 -8.2640 105° East  Level Estimated
11:48AM 51.6505 -8.0408 105° East  Level Estimated
11:49AM 51.6124 -7.8179 105° East  Level Estimated
11:50AM 51.5739 -7.5955 105° East  Level Estimated
11:51AM 51.5349 -7.3734 106° East  Level Estimated
11:52AM 51.4955 -7.1517 106° East  Level Estimated
11:53AM 51.4558 -6.9304 106° East  Level Estimated
11:54AM 51.4156 -6.7095 106° East  Level Estimated
11:55AM 51.3750 -6.4890 106° East  Level Estimated
11:56AM 51.3339 -6.2688 107° East  Level Estimated
11:57AM 51.2925 -6.0491 107° East  Level Estimated
11:58AM 51.2506 -5.8298 107° East  Level Estimated
11:59AM 51.2084 -5.6108 107° East  Level Estimated
12:00PM 51.1657 -5.3923 107° East  Level Estimated
12:01PM 51.1227 -5.1741 107° East  Level Estimated
12:02PM 51.0792 -4.9564 108° East  Level Estimated
12:03PM 51.0353 -4.7391 108° East  Level Estimated
12:04PM 50.9910 -4.5222 108° East  Level Estimated
12:05PM 50.9463 -4.3057 108° East  Level Estimated
12:06PM 50.9013 -4.0896 108° East  Level Estimated
12:07PM 50.8558 -3.8740 108° East  Level Estimated
12:08PM 50.8099 -3.6588 109° East  Level Estimated
12:09PM 50.7636 -3.4440 109° East  Level Estimated
12:10PM 50.7170 -3.2296 109° East  Level Estimated
12:11PM 50.6699 -3.0156 109° East  Level Estimated
12:12PM 50.6225 -2.8021 109° East  Level Estimated
12:13PM 50.5746 -2.5890 109° East  Level Estimated
12:14PM 50.5264 -2.3764 110° East  Level Estimated
12:15PM 50.4778 -2.1641 110° East  Level Estimated
12:16PM 50.4288 -1.9524 110° East  Level Estimated
12:17PM 50.3794 -1.7410 110° East  Level Estimated
12:18PM 50.3296 -1.5301 110° East  Level Estimated
12:19PM 50.2795 -1.3197 110° East  Level Estimated
12:20PM 50.2290 -1.1097 111° Southeast  Level Estimated
12:21PM 50.1781 -0.9001 111° Southeast  Level Estimated
12:22PM 50.1268 -0.6910 111° Southeast  Level Estimated
12:23PM 50.0751 -0.4823 111° Southeast  Level Estimated
12:24PM 50.0231 -0.2741 111° Southeast  Level Estimated
12:25PM 49.9707 -0.0663 111° Southeast  Level Estimated
12:26PM 49.9180 0.1410 112° Southeast  Level Estimated
12:27PM 49.8648 0.3478 112° Southeast  Level Estimated
12:28PM 49.8113 0.5542 112° Southeast  Level Estimated
12:29PM 49.7575 0.7602 112° Southeast  Level Estimated
12:30PM 49.7032 0.9657 112° Southeast  Level Estimated
12:31PM 49.6486 1.1707 112° Southeast  Level Estimated
12:32PM 49.5937 1.3752 112° Southeast  Level Estimated
12:33PM 49.5384 1.5793 113° Southeast  Level Estimated
12:34PM 49.4827 1.7830 113° Southeast  Level Estimated
12:35PM 49.4267 1.9861 113° Southeast  Level Estimated
12:36PM 49.3703 2.1888 113° Southeast  Level Estimated
12:37PM 49.3135 2.3911 113° Southeast  Level Estimated
12:38PM 49.2564 2.5929 113° Southeast  Level Estimated
12:39PM 49.1990 2.7942 114° Southeast  Level Estimated
12:40PM 49.1412 2.9950 114° Southeast  Level Estimated
12:41PM 49.0831 3.1954 114° Southeast  Level Estimated
12:42PM 49.0246 3.3953 114° Southeast  Level Estimated
12:43PM 48.9658 3.5947 114° Southeast  Level Estimated
12:44PM 48.9066 3.7937 114° Southeast  Level Estimated
12:45PM 48.8471 3.9922 114° Southeast  Level Estimated
12:46PM 48.7872 4.1902 115° Southeast  Level Estimated
12:47PM 48.7270 4.3877 115° Southeast  Level Estimated
12:48PM 48.6665 4.5848 115° Southeast  Level Estimated
12:49PM 48.6057 4.7814 115° Southeast  Level Estimated
12:50PM 48.5444 4.9775 115° Southeast  Level Estimated
12:51PM 48.4829 5.1731 115° Southeast  Level Estimated
12:52PM 48.4211 5.3683 115° Southeast  Level Estimated
12:53PM 48.3589 5.5630 116° Southeast  Level Estimated
12:54PM 48.2963 5.7572 116° Southeast  Level Estimated
12:55PM 48.2335 5.9510 116° Southeast  Level Estimated
12:56PM 48.1703 6.1442 116° Southeast  Level Estimated
12:57PM 48.1068 6.3370 116° Southeast  Level Estimated
12:58PM 48.0430 6.5293 116° Southeast  Level Estimated
12:59PM 47.9789 6.7211 116° Southeast  Level Estimated
01:00PM 47.9145 6.9125 117° Southeast  Level Estimated
01:01PM 47.8497 7.1034 117° Southeast  Level Estimated
01:02PM 47.7846 7.2938 117° Southeast  Level Estimated
01:03PM 47.7192 7.4837 117° Southeast  Level Estimated
01:04PM 47.6535 7.6732 117° Southeast  Level Estimated
01:05PM 47.5875 7.8621 117° Southeast  Level Estimated
01:06PM 47.5211 8.0506 117° Southeast  Level Estimated
01:07PM 47.4545 8.2386 118° Southeast  Level Estimated
01:08PM 47.3876 8.4262 118° Southeast  Level Estimated
01:09PM 47.3203 8.6132 118° Southeast  Level Estimated
01:10PM 47.2528 8.7998 118° Southeast  Level Estimated
01:11PM 47.1849 8.9859 118° Southeast  Level Estimated
01:12PM 47.1167 9.1715 118° Southeast  Level Estimated
01:13PM 47.0483 9.3567 118° Southeast  Level Estimated
01:14PM 46.9795 9.5414 119° Southeast  Level Estimated
01:15PM 46.9105 9.7256 119° Southeast  Level Estimated
01:16PM 46.8411 9.9093 119° Southeast  Level Estimated
01:17PM 46.7715 10.0926 119° Southeast  Level Estimated
01:18PM 46.7015 10.2753 119° Southeast  Level Estimated
01:19PM 46.6313 10.4577 119° Southeast  Level Estimated
01:20PM 46.5608 10.6395 119° Southeast  Level Estimated
01:21PM 46.4900 10.8209 120° Southeast  Level Estimated
01:22PM 46.4189 11.0017 120° Southeast  Level Estimated
01:23PM 46.3476 11.1822 120° Southeast  Level Estimated
01:24PM 46.2759 11.3621 120° Southeast  Level Estimated
01:25PM 46.2040 11.5416 120° Southeast  Level Estimated
01:26PM 46.1318 11.7206 120° Southeast  Level Estimated
01:27PM 46.0593 11.8991 120° Southeast  Level Estimated
01:28PM 45.9865 12.0772 120° Southeast  Level Estimated
01:29PM 45.9135 12.2548 121° Southeast  Level Estimated
01:30PM 45.8402 12.4319 121° Southeast  Level Estimated
01:31PM 45.7666 12.6086 121° Southeast  Level Estimated
01:32PM 45.6927 12.7847 121° Southeast  Level Estimated
01:33PM 45.6172 12.9638 121° Southeast  Level Estimated
01:34PM 45.5413 13.1424 121° Southeast  Level Estimated
01:35PM 45.4652 13.3205 121° Southeast  Level Estimated
01:36PM 45.3888 13.4982 121° Southeast  Level Estimated
01:37PM 45.3122 13.6754 122° Southeast  Level Estimated
01:38PM 45.2352 13.8520 122° Southeast  Level Estimated
01:39PM 45.1580 14.0282 122° Southeast  Level Estimated
01:40PM 45.0806 14.2039 122° Southeast  Level Estimated
01:41PM 45.0028 14.3792 122° Southeast  Level Estimated
01:42PM 44.9248 14.5540 122° Southeast  Level Estimated
01:43PM 44.8465 14.7283 122° Southeast  Level Estimated
01:44PM 44.7680 14.9021 122° Southeast  Level Estimated
01:45PM 44.6892 15.0754 123° Southeast  Level Estimated
01:46PM 44.6101 15.2483 123° Southeast  Level Estimated
01:47PM 44.5308 15.4207 123° Southeast  Level Estimated
01:48PM 44.4512 15.5927 123° Southeast  Level Estimated
01:49PM 44.3713 15.7641 123° Southeast  Level Estimated
01:50PM 44.2912 15.9351 123° Southeast  Level Estimated
01:51PM 44.2109 16.1057 123° Southeast  Level Estimated
01:52PM 44.1303 16.2757 123° Southeast  Level Estimated
01:53PM 44.0494 16.4454 124° Southeast  Level Estimated
01:54PM 43.9683 16.6145 124° Southeast  Level Estimated
01:55PM 43.8870 16.7832 124° Southeast  Level Estimated
01:56PM 43.8054 16.9514 124° Southeast  Level Estimated
01:57PM 43.7235 17.1192 124° Southeast  Level Estimated
01:58PM 43.6414 17.2864 124° Southeast  Level Estimated
01:59PM 43.5591 17.4533 124° Southeast  Level Estimated
02:00PM 43.4765 17.6197 124° Southeast  Level Estimated
02:01PM 43.3937 17.7856 124° Southeast  Level Estimated
02:02PM 43.3106 17.9511 125° Southeast  Level Estimated
02:03PM 43.2273 18.1161 125° Southeast  Level Estimated
02:04PM 43.1438 18.2807 125° Southeast  Level Estimated
02:05PM 43.0600 18.4448 125° Southeast  Level Estimated
02:06PM 42.9760 18.6085 125° Southeast  Level Estimated
02:07PM 42.8918 18.7717 125° Southeast  Level Estimated
02:08PM 42.8073 18.9345 125° Southeast  Level Estimated
02:09PM 42.7226 19.0969 125° Southeast  Level Estimated
02:10PM 42.6377 19.2588 125° Southeast  Level Estimated
02:11PM 42.5525 19.4202 126° Southeast  Level Estimated
02:12PM 42.4672 19.5812 126° Southeast  Level Estimated
02:13PM 42.3815 19.7418 126° Southeast  Level Estimated
02:14PM 42.2957 19.9019 126° Southeast  Level Estimated
02:15PM 42.2097 20.0616 126° Southeast  Level Estimated
02:16PM 42.1234 20.2209 126° Southeast  Level Estimated
02:17PM 42.0369 20.3797 126° Southeast  Level Estimated
02:18PM 41.9502 20.5381 126° Southeast  Level Estimated
02:19PM 41.8633 20.6961 126° Southeast  Level Estimated
02:20PM 41.7761 20.8536 127° Southeast  Level Estimated
02:21PM 41.6888 21.0108 127° Southeast  Level Estimated
02:22PM 41.6012 21.1674 127° Southeast  Level Estimated
02:23PM 41.5134 21.3237 127° Southeast  Level Estimated
02:24PM 41.4254 21.4795 127° Southeast  Level Estimated
02:25PM 41.3372 21.6350 127° Southeast  Level Estimated
02:26PM 41.2488 21.7899 127° Southeast  Level Estimated
02:27PM 41.1602 21.9445 127° Southeast  Level Estimated
02:28PM 41.0714 22.0987 127° Southeast  Level Estimated
02:29PM 40.9823 22.2524 127° Southeast  Level Estimated
02:30PM 40.8931 22.4057 128° Southeast  Level Estimated
02:31PM 40.8037 22.5586 128° Southeast  Level Estimated
02:32PM 40.7141 22.7111 128° Southeast  Level Estimated
02:33PM 40.6242 22.8632 128° Southeast  Level Estimated
02:34PM 40.5342 23.0149 128° Southeast  Level Estimated
02:35PM 40.4439 23.1662 128° Southeast  Level Estimated
02:36PM 40.3535 23.3171 128° Southeast  Level Estimated
02:37PM 40.2629 23.4675 128° Southeast  Level Estimated
02:38PM 40.1721 23.6176 128° Southeast  Level Estimated
02:39PM 40.0811 23.7672 128° Southeast  Level Estimated
02:40PM 39.9898 23.9165 129° Southeast  Level Estimated
02:41PM 39.8984 24.0653 129° Southeast  Level Estimated
02:42PM 39.8069 24.2138 129° Southeast  Level Estimated
02:43PM 39.7151 24.3619 129° Southeast  Level Estimated
02:44PM 39.6231 24.5096 129° Southeast  Level Estimated
02:45PM 39.5310 24.6568 129° Southeast  Level Estimated
02:46PM 39.4386 24.8037 129° Southeast  Level Estimated
02:47PM 39.3461 24.9502 129° Southeast  Level Estimated
02:48PM 39.2534 25.0963 129° Southeast  Level Estimated
02:49PM 39.1605 25.2421 129° Southeast  Level Estimated
02:50PM 39.0675 25.3874 129° Southeast  Level Estimated
02:51PM 38.9743 25.5324 130° Southeast  Level Estimated
02:52PM 38.8808 25.6769 130° Southeast  Level Estimated
02:53PM 38.7872 25.8211 130° Southeast  Level Estimated
02:54PM 38.6935 25.9650 130° Southeast  Level Estimated
02:55PM 38.5995 26.1084 130° Southeast  Level Estimated
02:56PM 38.5054 26.2515 130° Southeast  Level Estimated
02:57PM 38.4111 26.3941 130° Southeast  Level Estimated
02:58PM 38.3166 26.5365 130° Southeast  Level Estimated
02:59PM 38.2220 26.6784 130° Southeast  Level Estimated
03:00PM 38.1271 26.8200 130° Southeast  Level Estimated
03:01PM 38.0321 26.9612 130° Southeast  Level Estimated
03:02PM 37.9370 27.1021 131° Southeast  Level Estimated
03:03PM 37.8417 27.2425 131° Southeast  Level Estimated
03:04PM 37.7462 27.3827 131° Southeast  Level Estimated
03:05PM 37.6505 27.5224 131° Southeast  Level Estimated
03:06PM 37.5547 27.6618 131° Southeast  Level Estimated
03:07PM 37.4587 27.8009 131° Southeast  Level Estimated
03:08PM 37.3626 27.9395 131° Southeast  Level Estimated
03:09PM 37.2663 28.0779 131° Southeast  Level Estimated
03:10PM 37.1698 28.2158 131° Southeast  Level Estimated
03:11PM 37.0732 28.3535 131° Southeast  Level Estimated
03:12PM 36.9764 28.4907 131° Southeast  Level Estimated
03:13PM 36.8795 28.6276 131° Southeast  Level Estimated
03:14PM 36.7824 28.7642 132° Southeast  Level Estimated
03:15PM 36.6851 28.9004 132° Southeast  Level Estimated
03:16PM 36.5877 29.0363 132° Southeast  Level Estimated
03:17PM 36.4901 29.1719 132° Southeast  Level Estimated
03:18PM 36.3924 29.3071 132° Southeast  Level Estimated
03:19PM 36.2946 29.4419 132° Southeast  Level Estimated
03:20PM 36.1965 29.5765 132° Southeast  Level Estimated
03:21PM 36.0984 29.7106 132° Southeast  Level Estimated
03:22PM 36.0000 29.8445 132° Southeast  Level Estimated
03:23PM 35.9016 29.9780 132° Southeast  Level Estimated
03:24PM 35.8030 30.1112 132° Southeast  Level Estimated
03:25PM 35.7042 30.2440 132° Southeast  Level Estimated
03:26PM 35.6053 30.3766 133° Southeast  Level Estimated
03:27PM 35.5062 30.5088 133° Southeast  Level Estimated
03:28PM 35.4071 30.6406 133° Southeast  Level Estimated
03:29PM 35.3077 30.7722 133° Southeast  Level Estimated
03:30PM 35.2082 30.9034 133° Southeast  Level Estimated
03:31PM 35.1086 31.0343 133° Southeast  Level Estimated
03:32PM 35.0089 31.1649 133° Southeast  Level Estimated
03:33PM 34.9090 31.2951 133° Southeast  Level Estimated
03:34PM 34.8089 31.4251 133° Southeast  Level Estimated
03:35PM 34.7087 31.5547 133° Southeast  Level Estimated
03:36PM 34.6084 31.6840 133° Southeast  Level Estimated
03:37PM 34.5080 31.8130 133° Southeast  Level Estimated
03:38PM 34.4074 31.9417 133° Southeast  Level Estimated
03:39PM 34.3067 32.0701 134° Southeast  Level Estimated
03:40PM 34.2058 32.1982 134° Southeast  Level Estimated
03:41PM 34.1048 32.3260 134° Southeast  Level Estimated
03:42PM 34.0037 32.4534 134° Southeast  Level Estimated
03:43PM 33.9025 32.5806 134° Southeast  Level Estimated
03:44PM 33.8011 32.7075 134° Southeast  Level Estimated
03:45PM 33.6996 32.8340 134° Southeast  Level Estimated
03:46PM 33.5979 32.9603 134° Southeast  Level Estimated
03:47PM 33.4962 33.0863 134° Southeast  Level Estimated
03:48PM 33.3943 33.2119 134° Southeast  Level Estimated
03:49PM 33.2923 33.3373 134° Southeast  Level Estimated
03:50PM 33.1901 33.4624 134° Southeast  Level Estimated
03:51PM 33.0878 33.5872 134° Southeast  Level Estimated
03:52PM 32.9855 33.7117 134° Southeast  Level Estimated
03:53PM 32.8829 33.8359 134° Southeast  Level Estimated
03:54PM 32.7803 33.9598 135° Southeast  Level Estimated
03:55PM 32.6775 34.0834 135° Southeast  Level Estimated
03:56PM 32.5746 34.2068 135° Southeast  Level Estimated
03:57PM 32.4716 34.3298 135° Southeast  Level Estimated
03:58PM 32.3685 34.4526 135° Southeast  Level Estimated
03:59PM 32.2653 34.5751 135° Southeast  Level Estimated
04:00PM 32.1619 34.6974 135° Southeast  Level Estimated
04:01PM 32.0585 34.8193 135° Southeast  Level Estimated
04:02PM 32.0095 34.8769 135° Southeast  Level Estimated
04:03PM 32.0095 34.8769 270° West  Level Estimated
04:04PM 32.0095 34.8769 270° West  Level Estimated
04:05PM 32.0095 34.8769 270° West  Level Estimated
04:06PM 32.0095 34.8769 270° West  Level Estimated
04:07PM 32.0095 34.8769 270° West  Level Estimated
04:08PM 32.0095 34.8769 270° West  Level Estimated
04:09PM 32.0095 34.8769 270° West  Level Estimated
04:10PM 32.0095 34.8769 270° West  Level Estimated
04:11PM 32.0095 34.8769 270° West  Level Estimated
04:12PM 32.0095 34.8769 270° West  Level Estimated
04:13PM 32.0095 34.8769 270° West  Level Estimated
04:14PM 32.0095 34.8769 270° West  Level Estimated
04:15PM 32.0095 34.8769 270° West  Level Estimated
04:16PM 32.0095 34.8769 270° West  Level Estimated
04:17PM 32.0095 34.8769 270° West  Level Estimated
04:18PM 32.0095 34.8769 270° West  Level Estimated
04:19PM 32.0095 34.8769 270° West  Level Estimated
04:20PM 32.0095 34.8769 270° West  Level Estimated
04:21PM 32.0095 34.8769 270° West  Level Estimated
04:22PM 32.0095 34.8769 270° West  Level Estimated
04:23PM 32.0095 34.8769 270° West  Level Estimated
04:24PM 32.0095 34.8769 270° West  Level Estimated
04:25PM 32.0095 34.8769 270° West  Level Estimated
04:26PM 32.0095 34.8769 270° West  Level Estimated